sensor_id;sensor_type;location;lat;lon;timestamp;pressure;altitude;pressure_sealevel;temperature;humidity
35918;BME280;22011;59.912;30.300;2023-09-18T00:01:07;101934.50;;;12.87;65.48
35918;BME280;22011;59.912;30.300;2023-09-18T00:03:36;101927.47;;;12.86;64.85
35918;BME280;22011;59.912;30.300;2023-09-18T00:06:03;101922.66;;;12.89;64.54
35918;BME280;22011;59.912;30.300;2023-09-18T00:08:31;101924.03;;;12.93;65.08
35918;BME280;22011;59.912;30.300;2023-09-18T00:11:00;101938.78;;;12.97;64.67
35918;BME280;22011;59.912;30.300;2023-09-18T00:13:28;101936.28;;;12.96;65.26
35918;BME280;22011;59.912;30.300;2023-09-18T00:15:56;101940.09;;;12.93;65.29
35918;BME280;22011;59.912;30.300;2023-09-18T00:18:26;101944.59;;;12.93;65.09
35918;BME280;22011;59.912;30.300;2023-09-18T00:20:53;101947.44;;;12.91;65.36
35918;BME280;22011;59.912;30.300;2023-09-18T00:23:21;101953.22;;;12.87;65.41
35918;BME280;22011;59.912;30.300;2023-09-18T00:25:49;101968.00;;;12.91;65.84
35918;BME280;22011;59.912;30.300;2023-09-18T00:28:18;101961.34;;;12.95;65.15
35918;BME280;22011;59.912;30.300;2023-09-18T00:30:49;101962.03;;;12.97;65.35
35918;BME280;22011;59.912;30.300;2023-09-18T00:33:17;101962.34;;;12.94;65.46
35918;BME280;22011;59.912;30.300;2023-09-18T00:35:46;101971.34;;;12.93;66.00
35918;BME280;22011;59.912;30.300;2023-09-18T00:38:14;101968.97;;;12.90;65.30
35918;BME280;22011;59.912;30.300;2023-09-18T00:40:42;101969.66;;;12.92;65.87
35918;BME280;22011;59.912;30.300;2023-09-18T00:43:10;101966.44;;;12.88;65.03
35918;BME280;22011;59.912;30.300;2023-09-18T00:45:40;101971.34;;;12.93;66.09
35918;BME280;22011;59.912;30.300;2023-09-18T00:48:09;101971.66;;;12.90;66.46
35918;BME280;22011;59.912;30.300;2023-09-18T00:50:37;101969.28;;;12.87;65.61
35918;BME280;22011;59.912;30.300;2023-09-18T00:53:07;101970.13;;;12.87;66.24
35918;BME280;22011;59.912;30.300;2023-09-18T00:55:36;101969.13;;;12.88;65.93
35918;BME280;22011;59.912;30.300;2023-09-18T00:58:05;101964.09;;;12.85;65.96
35918;BME280;22011;59.912;30.300;2023-09-18T01:00:33;101966.91;;;12.84;66.07
35918;BME280;22011;59.912;30.300;2023-09-18T01:03:02;101967.59;;;12.86;66.25
35918;BME280;22011;59.912;30.300;2023-09-18T01:05:31;101967.53;;;13.13;66.23
35918;BME280;22011;59.912;30.300;2023-09-18T01:07:59;101969.28;;;12.87;65.86
35918;BME280;22011;59.912;30.300;2023-09-18T01:10:32;101969.97;;;12.89;66.04
35918;BME280;22011;59.912;30.300;2023-09-18T01:13:04;101969.28;;;12.87;66.17
35918;BME280;22011;59.912;30.300;2023-09-18T01:15:48;101975.84;;;12.92;67.23
35918;BME280;22011;59.912;30.300;2023-09-18T01:18:21;101979.28;;;12.85;66.68
35918;BME280;22011;59.912;30.300;2023-09-18T01:20:48;101982.94;;;12.84;65.92
35918;BME280;22011;59.912;30.300;2023-09-18T01:23:17;101987.41;;;12.93;67.17
35918;BME280;22011;59.912;30.300;2023-09-18T01:25:45;101987.69;;;12.90;66.38
35918;BME280;22011;59.912;30.300;2023-09-18T01:28:13;101987.84;;;12.88;65.88
35918;BME280;22011;59.912;30.300;2023-09-18T01:30:42;101989.38;;;12.91;65.74
35918;BME280;22011;59.912;30.300;2023-09-18T01:33:11;101997.09;;;12.94;66.13
35918;BME280;22011;59.912;30.300;2023-09-18T01:35:39;101994.44;;;12.94;66.15
35918;BME280;22011;59.912;30.300;2023-09-18T01:38:07;101997.09;;;12.94;65.96
35918;BME280;22011;59.912;30.300;2023-09-18T01:40:39;101999.47;;;12.97;66.66
35918;BME280;22011;59.912;30.300;2023-09-18T01:43:06;102009.34;;;12.96;66.58
35918;BME280;22011;59.912;30.300;2023-09-18T01:45:34;102004.16;;;12.95;66.41
35918;BME280;22011;59.912;30.300;2023-09-18T01:48:04;102001.72;;;13.01;66.15
35918;BME280;22011;59.912;30.300;2023-09-18T01:50:33;102005.38;;;13.00;65.64
35918;BME280;22011;59.912;30.300;2023-09-18T01:53:00;102001.72;;;13.01;65.58
35918;BME280;22011;59.912;30.300;2023-09-18T01:55:28;102004.38;;;13.01;66.61
35918;BME280;22011;59.912;30.300;2023-09-18T01:57:58;102009.88;;;13.00;66.61
35918;BME280;22011;59.912;30.300;2023-09-18T02:00:26;102013.56;;;12.99;67.04
35918;BME280;22011;59.912;30.300;2023-09-18T02:02:53;102020.28;;;13.03;66.63
35918;BME280;22011;59.912;30.300;2023-09-18T02:05:23;102013.84;;;12.96;65.68
35918;BME280;22011;59.912;30.300;2023-09-18T02:07:51;102004.44;;;12.92;66.09
35918;BME280;22011;59.912;30.300;2023-09-18T02:10:18;102009.66;;;12.93;65.71
35918;BME280;22011;59.912;30.300;2023-09-18T02:12:46;102015.44;;;12.89;65.73
35918;BME280;22011;59.912;30.300;2023-09-18T02:15:15;102012.78;;;12.89;67.05
35918;BME280;22011;59.912;30.300;2023-09-18T02:17:43;102029.13;;;12.86;66.50
35918;BME280;22011;59.912;30.300;2023-09-18T02:20:11;102030.25;;;12.83;65.72
35918;BME280;22011;59.912;30.300;2023-09-18T02:22:39;102020.41;;;12.84;65.98
35918;BME280;22011;59.912;30.300;2023-09-18T02:25:08;102031.50;;;12.89;65.82
35918;BME280;22011;59.912;30.300;2023-09-18T02:27:35;102026.84;;;12.91;65.89
35918;BME280;22011;59.912;30.300;2023-09-18T02:30:04;102035.47;;;12.85;65.82
35918;BME280;22011;59.912;30.300;2023-09-18T02:32:34;102035.84;;;12.90;65.75
35918;BME280;22011;59.912;30.300;2023-09-18T02:35:03;102040.66;;;12.86;65.91
35918;BME280;22011;59.912;30.300;2023-09-18T02:37:33;102037.44;;;12.83;65.96
35918;BME280;22011;59.912;30.300;2023-09-18T02:40:00;102029.00;;;12.77;65.86
35918;BME280;22011;59.912;30.300;2023-09-18T02:42:28;102036.66;;;12.72;66.31
35918;BME280;22011;59.912;30.300;2023-09-18T02:44:56;102038.22;;;12.65;66.72
35918;BME280;22011;59.912;30.300;2023-09-18T02:47:23;102033.47;;;12.59;67.04
35918;BME280;22011;59.912;30.300;2023-09-18T02:49:52;102032.47;;;12.60;67.57
35918;BME280;22011;59.912;30.300;2023-09-18T02:52:21;102032.22;;;12.54;67.56
35918;BME280;22011;59.912;30.300;2023-09-18T02:54:49;102037.41;;;12.55;68.78
35918;BME280;22011;59.912;30.300;2023-09-18T02:57:17;102029.53;;;12.54;68.54
35918;BME280;22011;59.912;30.300;2023-09-18T02:59:45;102031.22;;;12.55;68.23
35918;BME280;22011;59.912;30.300;2023-09-18T03:02:13;102035.72;;;12.54;68.10
35918;BME280;22011;59.912;30.300;2023-09-18T03:04:40;102034.06;;;12.53;67.41
35918;BME280;22011;59.912;30.300;2023-09-18T03:07:12;102044.16;;;12.59;68.14
35918;BME280;22011;59.912;30.300;2023-09-18T03:09:40;102040.94;;;12.56;67.89
35918;BME280;22011;59.912;30.300;2023-09-18T03:12:08;102045.59;;;12.54;68.02
35918;BME280;22011;59.912;30.300;2023-09-18T03:14:36;102046.13;;;12.57;67.19
35918;BME280;22011;59.912;30.300;2023-09-18T03:17:04;102050.50;;;12.58;68.67
35918;BME280;22011;59.912;30.300;2023-09-18T03:19:31;102049.41;;;12.51;68.47
35918;BME280;22011;59.912;30.300;2023-09-18T03:22:01;102046.34;;;12.46;69.02
35918;BME280;22011;59.912;30.300;2023-09-18T03:24:30;102043.97;;;12.43;69.38
35918;BME280;22011;59.912;30.300;2023-09-18T03:26:58;102046.53;;;12.35;69.68
35918;BME280;22011;59.912;30.300;2023-09-18T03:29:26;102043.44;;;12.30;69.90
35918;BME280;22011;59.912;30.300;2023-09-18T03:31:56;102036.41;;;12.29;69.54
35918;BME280;22011;59.912;30.300;2023-09-18T03:34:25;102023.34;;;12.26;69.67
35918;BME280;22011;59.912;30.300;2023-09-18T03:36:53;102030.13;;;12.20;69.57
35918;BME280;22011;59.912;30.300;2023-09-18T03:39:21;102026.03;;;12.26;69.42
35918;BME280;22011;59.912;30.300;2023-09-18T03:41:50;102037.81;;;12.33;69.78
35918;BME280;22011;59.912;30.300;2023-09-18T03:44:18;102024.75;;;12.30;69.77
35918;BME280;22011;59.912;30.300;2023-09-18T03:46:45;102032.75;;;12.30;69.81
35918;BME280;22011;59.912;30.300;2023-09-18T03:49:13;102038.09;;;12.30;69.04
35918;BME280;22011;59.912;30.300;2023-09-18T03:51:41;102044.84;;;12.34;70.67
35918;BME280;22011;59.912;30.300;2023-09-18T03:54:10;102044.16;;;12.32;70.40
35918;BME280;22011;59.912;30.300;2023-09-18T03:56:38;102041.47;;;12.32;70.00
35918;BME280;22011;59.912;30.300;2023-09-18T03:59:08;102057.66;;;12.30;70.27
35918;BME280;22011;59.912;30.300;2023-09-18T04:01:35;102056.84;;;12.20;69.68
35918;BME280;22011;59.912;30.300;2023-09-18T04:04:03;102058.66;;;12.20;70.26
35918;BME280;22011;59.912;30.300;2023-09-18T04:06:36;102063.72;;;12.23;70.93
35918;BME280;22011;59.912;30.300;2023-09-18T04:09:04;102068.53;;;12.09;70.37
35918;BME280;22011;59.912;30.300;2023-09-18T04:11:32;102059.25;;;12.04;70.64
35918;BME280;22011;59.912;30.300;2023-09-18T04:14:00;102073.59;;;12.03;70.51
35918;BME280;22011;59.912;30.300;2023-09-18T04:16:29;102073.44;;;12.04;70.80
35918;BME280;22011;59.912;30.300;2023-09-18T04:18:57;102065.03;;;11.99;70.28
35918;BME280;22011;59.912;30.300;2023-09-18T04:21:25;102067.69;;;11.99;69.79
35918;BME280;22011;59.912;30.300;2023-09-18T04:23:52;102069.25;;;12.02;70.16
35918;BME280;22011;59.912;30.300;2023-09-18T04:26:23;102065.44;;;12.04;70.36
35918;BME280;22011;59.912;30.300;2023-09-18T04:28:56;102063.19;;;12.09;69.97
35918;BME280;22011;59.912;30.300;2023-09-18T04:31:23;102065.41;;;12.14;69.76
35918;BME280;22011;59.912;30.300;2023-09-18T04:33:53;102071.03;;;12.21;69.63
35918;BME280;22011;59.912;30.300;2023-09-18T04:36:20;102058.94;;;12.17;69.68
35918;BME280;22011;59.912;30.300;2023-09-18T04:38:48;102063.88;;;12.11;70.04
35918;BME280;22011;59.912;30.300;2023-09-18T04:41:16;102059.66;;;12.09;70.09
35918;BME280;22011;59.912;30.300;2023-09-18T04:43:44;102071.06;;;12.11;69.53
35918;BME280;22011;59.912;30.300;2023-09-18T04:46:12;102067.94;;;12.16;69.47
35918;BME280;22011;59.912;30.300;2023-09-18T04:48:40;102064.00;;;12.20;69.25
35918;BME280;22011;59.912;30.300;2023-09-18T04:51:09;102065.41;;;12.24;69.44
35918;BME280;22011;59.912;30.300;2023-09-18T04:53:38;102072.44;;;12.25;69.84
35918;BME280;22011;59.912;30.300;2023-09-18T04:56:07;102071.59;;;12.24;69.06
35918;BME280;22011;59.912;30.300;2023-09-18T04:58:37;102068.78;;;12.26;68.73
35918;BME280;22011;59.912;30.300;2023-09-18T05:01:05;102068.78;;;12.26;69.05
35918;BME280;22011;59.912;30.300;2023-09-18T05:03:36;102067.09;;;12.25;68.28
35918;BME280;22011;59.912;30.300;2023-09-18T05:06:04;102062.88;;;12.22;68.17
35918;BME280;22011;59.912;30.300;2023-09-18T05:08:33;102084.53;;;12.29;68.70
35918;BME280;22011;59.912;30.300;2023-09-18T05:11:01;102077.34;;;12.29;68.51
35918;BME280;22011;59.912;30.300;2023-09-18T05:13:29;102081.56;;;12.32;68.13
35918;BME280;22011;59.912;30.300;2023-09-18T05:15:56;102088.44;;;12.34;67.35
35918;BME280;22011;59.912;30.300;2023-09-18T05:18:25;102079.28;;;12.37;68.12
35918;BME280;22011;59.912;30.300;2023-09-18T05:20:52;102082.53;;;12.40;66.53
35918;BME280;22011;59.912;30.300;2023-09-18T05:23:20;102089.41;;;12.43;66.55
35918;BME280;22011;59.912;30.300;2023-09-18T05:25:49;102091.47;;;12.49;66.92
35918;BME280;22011;59.912;30.300;2023-09-18T05:28:17;102093.16;;;12.50;66.78
35918;BME280;22011;59.912;30.300;2023-09-18T05:30:44;102095.53;;;12.53;67.33
35918;BME280;22011;59.912;30.300;2023-09-18T05:33:12;102090.47;;;12.50;67.17
35918;BME280;22011;59.912;30.300;2023-09-18T05:35:41;102091.78;;;12.46;66.81
35918;BME280;22011;59.912;30.300;2023-09-18T05:38:11;102104.16;;;12.47;66.53
35918;BME280;22011;59.912;30.300;2023-09-18T05:40:39;102105.16;;;12.46;67.26
35918;BME280;22011;59.912;30.300;2023-09-18T05:43:09;102108.81;;;12.45;67.33
35918;BME280;22011;59.912;30.300;2023-09-18T05:45:38;102100.66;;;12.47;67.69
35918;BME280;22011;59.912;30.300;2023-09-18T05:48:06;102102.16;;;12.49;67.22
35918;BME280;22011;59.912;30.300;2023-09-18T05:50:37;102105.09;;;12.56;66.96
35918;BME280;22011;59.912;30.300;2023-09-18T05:53:07;102097.91;;;12.56;67.17
35918;BME280;22011;59.912;30.300;2023-09-18T05:55:35;102107.78;;;12.56;66.59
35918;BME280;22011;59.912;30.300;2023-09-18T05:58:05;102109.72;;;12.63;66.03
35918;BME280;22011;59.912;30.300;2023-09-18T06:00:35;102112.09;;;12.66;65.99
35918;BME280;22011;59.912;30.300;2023-09-18T06:03:09;102112.81;;;12.68;66.20
35918;BME280;22011;59.912;30.300;2023-09-18T06:05:39;102114.78;;;12.66;66.00
35918;BME280;22011;59.912;30.300;2023-09-18T06:08:07;102105.47;;;12.70;66.29
35918;BME280;22011;59.912;30.300;2023-09-18T06:10:36;102109.09;;;12.79;65.69
35918;BME280;22011;59.912;30.300;2023-09-18T06:13:07;102107.13;;;12.81;66.10
35918;BME280;22011;59.912;30.300;2023-09-18T06:15:36;102117.53;;;12.84;65.71
35918;BME280;22011;59.912;30.300;2023-09-18T06:18:05;102114.72;;;12.86;66.00
35918;BME280;22011;59.912;30.300;2023-09-18T06:20:33;102119.75;;;12.89;65.82
35918;BME280;22011;59.912;30.300;2023-09-18T06:23:04;102117.25;;;12.87;65.08
35918;BME280;22011;59.912;30.300;2023-09-18T06:25:34;102120.31;;;12.92;65.01
35918;BME280;22011;59.912;30.300;2023-09-18T06:28:05;102129.44;;;12.99;65.57
35918;BME280;22011;59.912;30.300;2023-09-18T06:30:36;102131.28;;;12.99;64.57
35918;BME280;22011;59.912;30.300;2023-09-18T06:33:06;102131.06;;;13.10;64.83
35918;BME280;22011;59.912;30.300;2023-09-18T06:35:34;102123.34;;;13.07;64.39
35918;BME280;22011;59.912;30.300;2023-09-18T06:38:02;102123.19;;;13.08;64.49
35918;BME280;22011;59.912;30.300;2023-09-18T06:40:31;102132.75;;;13.11;63.67
35918;BME280;22011;59.912;30.300;2023-09-18T06:42:59;102134.72;;;13.19;64.62
35918;BME280;22011;59.912;30.300;2023-09-18T06:45:27;102118.38;;;13.22;63.96
35918;BME280;22011;59.912;30.300;2023-09-18T06:47:56;102129.31;;;13.28;64.81
35918;BME280;22011;59.912;30.300;2023-09-18T06:50:23;102130.72;;;13.32;64.34
35918;BME280;22011;59.912;30.300;2023-09-18T06:52:51;102129.13;;;13.39;64.37
35918;BME280;22011;59.912;30.300;2023-09-18T06:55:19;102128.06;;;13.50;64.43
35918;BME280;22011;59.912;30.300;2023-09-18T06:57:46;102129.81;;;13.59;62.98
35918;BME280;22011;59.912;30.300;2023-09-18T07:00:17;102131.19;;;13.63;63.54
35918;BME280;22011;59.912;30.300;2023-09-18T07:02:46;102126.84;;;13.98;63.95
35918;BME280;22011;59.912;30.300;2023-09-18T07:05:17;102130.81;;;13.76;62.96
35918;BME280;22011;59.912;30.300;2023-09-18T07:07:44;102134.88;;;13.80;63.10
35918;BME280;22011;59.912;30.300;2023-09-18T07:10:12;102132.13;;;13.90;62.71
35918;BME280;22011;59.912;30.300;2023-09-18T07:12:39;102131.88;;;14.01;62.30
35918;BME280;22011;59.912;30.300;2023-09-18T07:15:08;102140.16;;;14.07;62.22
35918;BME280;22011;59.912;30.300;2023-09-18T07:17:35;102130.81;;;14.12;61.89
35918;BME280;22011;59.912;30.300;2023-09-18T07:20:03;102126.44;;;14.11;61.82
35918;BME280;22011;59.912;30.300;2023-09-18T07:22:45;102132.56;;;14.21;62.17
35918;BME280;22011;59.912;30.300;2023-09-18T07:25:13;102131.88;;;14.19;61.19
35918;BME280;22011;59.912;30.300;2023-09-18T07:27:40;102139.44;;;14.23;62.21
35918;BME280;22011;59.912;30.300;2023-09-18T07:30:10;102148.63;;;14.21;61.27
35918;BME280;22011;59.912;30.300;2023-09-18T07:32:39;102150.69;;;14.27;61.63
35918;BME280;22011;59.912;30.300;2023-09-18T07:35:09;102141.97;;;14.25;60.79
35918;BME280;22011;59.912;30.300;2023-09-18T07:37:36;102150.06;;;14.33;62.12
35918;BME280;22011;59.912;30.300;2023-09-18T07:40:06;102157.22;;;14.42;61.16
35918;BME280;22011;59.912;30.300;2023-09-18T07:42:34;102158.19;;;14.41;60.50
35918;BME280;22011;59.912;30.300;2023-09-18T07:45:02;102152.53;;;14.44;60.82
35918;BME280;22011;59.912;30.300;2023-09-18T07:47:31;102150.44;;;14.56;59.79
35918;BME280;22011;59.912;30.300;2023-09-18T07:49:59;102148.09;;;14.61;59.97
35918;BME280;22011;59.912;30.300;2023-09-18T07:52:27;102148.00;;;14.70;59.61
35918;BME280;22011;59.912;30.300;2023-09-18T07:54:55;102146.19;;;14.79;59.17
35918;BME280;22011;59.912;30.300;2023-09-18T07:57:25;102147.56;;;14.83;59.38
35918;BME280;22011;59.912;30.300;2023-09-18T07:59:54;102147.91;;;15.22;60.16
35918;BME280;22011;59.912;30.300;2023-09-18T08:02:21;102147.50;;;15.01;59.24
35918;BME280;22011;59.912;30.300;2023-09-18T08:04:49;102154.69;;;15.00;58.93
35918;BME280;22011;59.912;30.300;2023-09-18T08:07:18;102153.84;;;15.00;58.49
35918;BME280;22011;59.912;30.300;2023-09-18T08:09:51;102155.22;;;15.04;60.28
35918;BME280;22011;59.912;30.300;2023-09-18T08:12:19;102144.09;;;14.91;59.83
35918;BME280;22011;59.912;30.300;2023-09-18T08:14:48;102148.59;;;14.90;59.00
35918;BME280;22011;59.912;30.300;2023-09-18T08:17:16;102145.94;;;14.90;59.66
35918;BME280;22011;59.912;30.300;2023-09-18T08:19:43;102140.28;;;15.01;58.67
35918;BME280;22011;59.912;30.300;2023-09-18T08:22:11;102139.47;;;15.09;58.05
35918;BME280;22011;59.912;30.300;2023-09-18T08:24:41;102142.19;;;15.17;57.97
35918;BME280;22011;59.912;30.300;2023-09-18T08:27:13;102139.06;;;15.30;58.36
35918;BME280;22011;59.912;30.300;2023-09-18T08:29:42;102141.97;;;15.45;57.63
35918;BME280;22011;59.912;30.300;2023-09-18T08:32:11;102137.94;;;15.49;57.68
35918;BME280;22011;59.912;30.300;2023-09-18T08:34:39;102138.78;;;15.49;57.00
35918;BME280;22011;59.912;30.300;2023-09-18T08:37:07;102138.59;;;15.43;56.48
35918;BME280;22011;59.912;30.300;2023-09-18T08:39:35;102137.91;;;15.41;57.47
35918;BME280;22011;59.912;30.300;2023-09-18T08:42:04;102143.28;;;15.41;56.55
35918;BME280;22011;59.912;30.300;2023-09-18T08:44:35;102145.84;;;15.50;57.41
35918;BME280;22011;59.912;30.300;2023-09-18T08:47:06;102147.50;;;15.43;57.40
35918;BME280;22011;59.912;30.300;2023-09-18T08:49:37;102151.94;;;15.77;57.66
35918;BME280;22011;59.912;30.300;2023-09-18T08:52:06;102149.28;;;15.26;56.55
35918;BME280;22011;59.912;30.300;2023-09-18T08:54:33;102151.94;;;15.18;58.31
35918;BME280;22011;59.912;30.300;2023-09-18T08:57:01;102154.25;;;15.13;57.20
35918;BME280;22011;59.912;30.300;2023-09-18T08:59:34;102164.78;;;15.07;57.50
35918;BME280;22011;59.912;30.300;2023-09-18T09:02:02;102163.28;;;15.04;58.02
35918;BME280;22011;59.912;30.300;2023-09-18T09:04:30;102164.63;;;15.08;58.01
35918;BME280;22011;59.912;30.300;2023-09-18T09:06:59;102165.00;;;15.13;58.80
35918;BME280;22011;59.912;30.300;2023-09-18T09:09:26;102174.88;;;15.13;60.53
35918;BME280;22011;59.912;30.300;2023-09-18T09:11:54;102165.78;;;15.05;59.96
35918;BME280;22011;59.912;30.300;2023-09-18T09:14:22;102167.28;;;15.00;60.11
35918;BME280;22011;59.912;30.300;2023-09-18T09:16:55;102174.16;;;15.02;60.36
35918;BME280;22011;59.912;30.300;2023-09-18T09:19:30;102177.41;;;15.14;60.79
35918;BME280;22011;59.912;30.300;2023-09-18T09:21:59;102176.72;;;15.12;59.88
35918;BME280;22011;59.912;30.300;2023-09-18T09:24:40;102163.06;;;15.31;60.66
35918;BME280;22011;59.912;30.300;2023-09-18T09:27:08;102178.63;;;15.20;58.75
35918;BME280;22011;59.912;30.300;2023-09-18T09:29:34;102178.78;;;15.18;59.05
35918;BME280;22011;59.912;30.300;2023-09-18T09:35:26;102176.66;;;15.30;58.38
35918;BME280;22011;59.912;30.300;2023-09-18T09:37:57;102178.53;;;15.37;58.69
35918;BME280;22011;59.912;30.300;2023-09-18T09:40:27;102174.13;;;15.28;58.58
35918;BME280;22011;59.912;30.300;2023-09-18T09:42:57;102177.13;;;15.25;57.98
35918;BME280;22011;59.912;30.300;2023-09-18T09:45:28;102169.44;;;15.30;58.76
35918;BME280;22011;59.912;30.300;2023-09-18T09:47:57;102186.53;;;15.29;58.20
35918;BME280;22011;59.912;30.300;2023-09-18T09:50:25;102165.88;;;15.22;58.37
35918;BME280;22011;59.912;30.300;2023-09-18T09:52:53;102170.56;;;15.20;58.72
35918;BME280;22011;59.912;30.300;2023-09-18T09:55:24;102169.91;;;15.26;58.85
35918;BME280;22011;59.912;30.300;2023-09-18T09:57:55;102162.66;;;15.18;58.60
35918;BME280;22011;59.912;30.300;2023-09-18T10:00:29;102160.66;;;15.20;59.36
35918;BME280;22011;59.912;30.300;2023-09-18T10:03:01;102171.22;;;15.14;58.80
35918;BME280;22011;59.912;30.300;2023-09-18T10:05:31;102168.53;;;15.14;59.28
35918;BME280;22011;59.912;30.300;2023-09-18T10:07:59;102167.66;;;15.47;59.39
35918;BME280;22011;59.912;30.300;2023-09-18T10:10:33;102161.19;;;15.24;60.23
35918;BME280;22011;59.912;30.300;2023-09-18T10:13:09;102161.81;;;15.18;60.38
35918;BME280;22011;59.912;30.300;2023-09-18T10:15:38;102170.38;;;15.13;59.06
35918;BME280;22011;59.912;30.300;2023-09-18T10:18:17;102166.22;;;15.27;59.33
35918;BME280;22011;59.912;30.300;2023-09-18T10:20:46;102171.72;;;15.17;58.42
35918;BME280;22011;59.912;30.300;2023-09-18T10:23:23;102166.06;;;15.28;59.13
35918;BME280;22011;59.912;30.300;2023-09-18T10:25:59;102174.44;;;15.25;59.09
35918;BME280;22011;59.912;30.300;2023-09-18T10:28:30;102187.47;;;15.12;58.37
35918;BME280;22011;59.912;30.300;2023-09-18T10:31:00;102185.63;;;15.13;59.27
35918;BME280;22011;59.912;30.300;2023-09-18T10:33:30;102180.94;;;15.15;57.86
35918;BME280;22011;59.912;30.300;2023-09-18T10:35:58;102188.16;;;15.14;57.44
35918;BME280;22011;59.912;30.300;2023-09-18T10:38:27;102184.47;;;15.15;58.08
35918;BME280;22011;59.912;30.300;2023-09-18T10:40:57;102183.16;;;15.19;57.97
35918;BME280;22011;59.912;30.300;2023-09-18T10:43:26;102175.09;;;15.19;57.19
35918;BME280;22011;59.912;30.300;2023-09-18T10:45:54;102177.25;;;15.16;57.38
35918;BME280;22011;59.912;30.300;2023-09-18T10:48:22;102181.41;;;15.10;56.80
35918;BME280;22011;59.912;30.300;2023-09-18T10:50:51;102181.63;;;15.17;57.38
35918;BME280;22011;59.912;30.300;2023-09-18T10:53:19;102181.31;;;15.20;55.98
35918;BME280;22011;59.912;30.300;2023-09-18T10:55:48;102195.94;;;15.25;55.46
35918;BME280;22011;59.912;30.300;2023-09-18T10:58:24;102182.72;;;15.40;55.43
35918;BME280;22011;59.912;30.300;2023-09-18T11:00:54;102183.03;;;15.29;54.04
35918;BME280;22011;59.912;30.300;2023-09-18T11:03:24;102175.81;;;15.29;53.28
35918;BME280;22011;59.912;30.300;2023-09-18T11:06:05;102179.91;;;15.50;53.82
35918;BME280;22011;59.912;30.300;2023-09-18T11:08:33;102179.19;;;15.40;51.50
35918;BME280;22011;59.912;30.300;2023-09-18T11:11:03;102181.91;;;15.48;51.80
35918;BME280;22011;59.912;30.300;2023-09-18T11:13:39;102180.97;;;15.57;51.58
35918;BME280;22011;59.912;30.300;2023-09-18T11:16:18;102174.59;;;15.74;52.28
35918;BME280;22011;59.912;30.300;2023-09-18T11:18:48;102184.50;;;15.65;52.46
35918;BME280;22011;59.912;30.300;2023-09-18T11:21:23;102183.50;;;15.75;51.70
35918;BME280;22011;59.912;30.300;2023-09-18T11:23:58;102185.69;;;15.71;51.47
35918;BME280;22011;59.912;30.300;2023-09-18T11:26:29;102181.28;;;15.62;51.36
35918;BME280;22011;59.912;30.300;2023-09-18T11:29:00;102182.13;;;15.62;52.03
35918;BME280;22011;59.912;30.300;2023-09-18T11:31:56;102182.69;;;15.82;53.23
35918;BME280;22011;59.912;30.300;2023-09-18T11:34:25;102188.31;;;15.55;52.01
35918;BME280;22011;59.912;30.300;2023-09-18T11:36:54;102175.31;;;15.92;52.90
35918;BME280;22011;59.912;30.300;2023-09-18T11:39:35;102184.38;;;15.83;52.92
35918;BME280;22011;59.912;30.300;2023-09-18T11:42:10;102179.50;;;15.79;53.57
35918;BME280;22011;59.912;30.300;2023-09-18T11:44:40;102181.81;;;15.65;53.33
35918;BME280;22011;59.912;30.300;2023-09-18T11:47:09;102188.34;;;15.63;53.62
35918;BME280;22011;59.912;30.300;2023-09-18T11:49:48;102181.81;;;15.65;54.00
35918;BME280;22011;59.912;30.300;2023-09-18T11:52:21;102178.28;;;15.57;53.32
35918;BME280;22011;59.912;30.300;2023-09-18T11:54:49;102167.16;;;15.52;54.00
35918;BME280;22011;59.912;30.300;2023-09-18T11:57:18;102166.81;;;15.47;53.42
35918;BME280;22011;59.912;30.300;2023-09-18T11:59:47;102170.34;;;15.47;53.38
35918;BME280;22011;59.912;30.300;2023-09-18T12:02:25;102169.53;;;15.63;53.91
35918;BME280;22011;59.912;30.300;2023-09-18T12:04:54;102163.97;;;15.48;52.91
35918;BME280;22011;59.912;30.300;2023-09-18T12:07:21;102163.78;;;15.50;53.34
35918;BME280;22011;59.912;30.300;2023-09-18T12:09:50;102163.13;;;15.48;53.94
35918;BME280;22011;59.912;30.300;2023-09-18T12:12:21;102158.78;;;15.55;53.82
35918;BME280;22011;59.912;30.300;2023-09-18T12:14:52;102162.16;;;15.65;53.52
35918;BME280;22011;59.912;30.300;2023-09-18T12:17:19;102158.47;;;15.58;52.34
35918;BME280;22011;59.912;30.300;2023-09-18T12:19:51;102155.13;;;15.72;53.81
35918;BME280;22011;59.912;30.300;2023-09-18T12:22:24;102149.41;;;15.75;53.58
35918;BME280;22011;59.912;30.300;2023-09-18T12:24:52;102150.41;;;15.74;51.43
35918;BME280;22011;59.912;30.300;2023-09-18T12:27:19;102145.06;;;15.82;51.04
35918;BME280;22011;59.912;30.300;2023-09-18T12:29:47;102147.25;;;15.87;51.77
35918;BME280;22011;59.912;30.300;2023-09-18T12:32:16;102146.94;;;15.98;51.59
35918;BME280;22011;59.912;30.300;2023-09-18T12:34:43;102145.91;;;15.99;50.96
35918;BME280;22011;59.912;30.300;2023-09-18T12:37:13;102139.69;;;15.98;51.63
35918;BME280;22011;59.912;30.300;2023-09-18T12:39:41;102139.19;;;15.95;51.03
35918;BME280;22011;59.912;30.300;2023-09-18T12:42:09;102145.09;;;15.98;50.31
35918;BME280;22011;59.912;30.300;2023-09-18T12:44:36;102142.06;;;16.01;51.61
35918;BME280;22011;59.912;30.300;2023-09-18T12:47:05;102141.72;;;15.96;50.53
35918;BME280;22011;59.912;30.300;2023-09-18T12:49:34;102142.91;;;15.94;50.86
35918;BME280;22011;59.912;30.300;2023-09-18T12:52:02;102131.63;;;15.90;51.05
35918;BME280;22011;59.912;30.300;2023-09-18T12:54:39;102139.53;;;16.00;51.34